Time;durP1;ratioP1;P1;durP2;ratioP2;P2;SDS_P1;SDS_P2;PMS_P1;PMS_P2;Temp;Humidity;BMP_temperature;BMP_pressure;BME280_temperature;BME280_humidity;BME280_pressure;Samples;Min_cycle;Max_cycle;Signal;HPM_P1;HPM_P2
2023/05/07 00:05:47;;;;;;;7.37;5.50;;;20.50;76.70;;;;;;10906893;32;20020;-75
2023/05/07 00:11:52;;;;;;;6.62;4.22;;;20.50;77.30;;;;;;10906234;32;20049;-75
2023/05/07 00:17:57;;;;;;;6.87;4.43;;;20.40;77.20;;;;;;10907148;32;20046;-75
2023/05/07 00:24:01;;;;;;;6.12;4.18;;;20.30;77.00;;;;;;10889172;32;20406;-75
2023/05/07 00:30:06;;;;;;;7.45;4.93;;;20.20;77.00;;;;;;10891127;32;20058;-75
2023/05/07 00:36:08;;;;;;;6.00;4.10;;;20.20;77.00;;;;;;10904677;32;20054;-75
2023/05/07 00:42:11;;;;;;;5.35;3.67;;;20.10;76.90;;;;;;10906128;32;20382;-75
2023/05/07 00:48:13;;;;;;;7.65;5.62;;;20.00;76.90;;;;;;10904889;32;20050;-75
2023/05/07 00:54:16;;;;;;;5.65;4.35;;;20.00;76.90;;;;;;10902014;32;20028;-75
2023/05/07 01:00:19;;;;;;;7.85;5.70;;;20.00;76.70;;;;;;10900254;32;20035;-75
2023/05/07 01:06:23;;;;;;;5.87;4.25;;;20.00;76.80;;;;;;10905503;32;20046;-75
2023/05/07 01:12:26;;;;;;;8.05;6.28;;;20.00;77.40;;;;;;10903865;32;20051;-71
2023/05/07 01:18:29;;;;;;;6.72;5.03;;;19.90;77.70;;;;;;10886443;32;20036;-70
2023/05/07 01:24:37;;;;;;;9.30;6.05;;;19.90;77.60;;;;;;10904780;32;20085;-71
2023/05/07 01:30:44;;;;;;;8.82;6.68;;;19.80;77.20;;;;;;10904044;32;20042;-71
2023/05/07 01:36:53;;;;;;;7.53;5.33;;;19.80;77.00;;;;;;10892175;32;20050;-70
2023/05/07 01:42:54;;;;;;;8.55;5.65;;;19.80;77.10;;;;;;10887754;32;20062;-71
2023/05/07 01:48:57;;;;;;;8.25;5.87;;;19.50;77.30;;;;;;10903437;32;20015;-71
2023/05/07 01:54:59;;;;;;;11.98;6.60;;;19.40;77.50;;;;;;10885963;32;20352;-71
2023/05/07 02:01:01;;;;;;;10.82;7.93;;;19.40;77.60;;;;;;10887405;32;20022;-71
2023/05/07 02:07:04;;;;;;;8.18;6.12;;;19.40;77.40;;;;;;10900376;32;20031;-70
2023/05/07 02:13:06;;;;;;;6.35;4.18;;;19.50;77.60;;;;;;10887486;32;20303;-70
2023/05/07 02:19:08;;;;;;;8.63;6.32;;;19.60;77.50;;;;;;10903312;32;20042;-70
2023/05/07 02:25:11;;;;;;;11.48;9.13;;;19.50;77.60;;;;;;10890582;32;20042;-71
2023/05/07 02:31:13;;;;;;;11.27;9.15;;;19.40;77.70;;;;;;10904560;32;20046;-70
2023/05/07 02:37:16;;;;;;;11.73;8.25;;;19.50;77.30;;;;;;10909517;32;20038;-70
2023/05/07 02:43:18;;;;;;;10.70;6.68;;;19.50;77.00;;;;;;10909248;32;20015;-70
2023/05/07 02:49:21;;;;;;;8.88;6.75;;;19.50;77.10;;;;;;10908955;32;20042;-70
2023/05/07 02:55:23;;;;;;;10.85;7.70;;;19.50;77.20;;;;;;10909363;32;20049;-70
2023/05/07 03:01:25;;;;;;;7.97;5.65;;;19.40;77.20;;;;;;10909119;32;20051;-70
2023/05/07 03:07:29;;;;;;;6.97;5.65;;;19.40;77.40;;;;;;10906865;32;20053;-70
2023/05/07 03:13:31;;;;;;;9.63;6.65;;;19.30;77.60;;;;;;10909496;32;20408;-70
2023/05/07 03:19:33;;;;;;;5.85;4.53;;;19.30;77.70;;;;;;10906401;32;20011;-71
2023/05/07 03:25:35;;;;;;;8.15;5.93;;;19.30;77.60;;;;;;10889728;32;20078;-71
2023/05/07 03:31:37;;;;;;;7.53;4.85;;;19.20;77.70;;;;;;10905905;32;20032;-71
2023/05/07 03:37:40;;;;;;;7.97;5.62;;;19.10;77.70;;;;;;10895087;32;20015;-71
2023/05/07 03:43:43;;;;;;;12.10;8.82;;;19.10;77.80;;;;;;10906497;32;20055;-70
2023/05/07 03:49:46;;;;;;;7.68;6.32;;;19.10;77.90;;;;;;10908513;32;20357;-70
2023/05/07 03:55:49;;;;;;;9.88;7.72;;;19.20;77.90;;;;;;10888777;32;20054;-70
2023/05/07 04:01:52;;;;;;;10.18;8.13;;;19.10;77.90;;;;;;10907154;32;20015;-70
2023/05/07 04:07:54;;;;;;;10.45;8.63;;;19.10;77.90;;;;;;10893535;32;20050;-71
2023/05/07 04:13:57;;;;;;;12.13;9.27;;;19.10;77.90;;;;;;10905155;32;20042;-70
2023/05/07 04:19:59;;;;;;;8.77;6.75;;;19.10;78.10;;;;;;10904784;32;20053;-70
2023/05/07 04:26:03;;;;;;;7.15;4.65;;;19.10;78.20;;;;;;10906870;32;20042;-70
2023/05/07 04:32:06;;;;;;;8.55;6.97;;;19.00;78.20;;;;;;10904385;32;20437;-71
2023/05/07 04:38:08;;;;;;;11.60;6.97;;;18.90;78.20;;;;;;10906521;32;20398;-70
2023/05/07 04:44:12;;;;;;;9.00;6.53;;;19.00;78.10;;;;;;10889631;32;20345;-70
2023/05/07 04:50:19;;;;;;;8.48;6.53;;;18.90;78.40;;;;;;10905286;32;20023;-70
2023/05/07 04:56:22;;;;;;;9.75;7.68;;;19.00;78.80;;;;;;10905277;32;20349;-70
2023/05/07 05:02:24;;;;;;;9.27;6.35;;;19.00;79.10;;;;;;10904140;32;20038;-70
2023/05/07 05:08:26;;;;;;;9.27;6.97;;;19.10;79.10;;;;;;10890497;32;20057;-71
2023/05/07 05:14:29;;;;;;;8.93;6.68;;;19.10;79.00;;;;;;10903683;32;20027;-71
2023/05/07 05:20:32;;;;;;;8.32;5.78;;;19.20;78.90;;;;;;10891910;32;20012;-70
2023/05/07 05:26:34;;;;;;;5.68;3.83;;;19.30;79.20;;;;;;10904842;32;20306;-70
2023/05/07 05:32:37;;;;;;;7.28;5.32;;;19.30;79.30;;;;;;10903701;32;20333;-71
2023/05/07 05:38:40;;;;;;;5.43;4.10;;;19.30;79.00;;;;;;10877325;32;20065;-70
2023/05/07 05:44:42;;;;;;;5.95;4.07;;;19.30;79.00;;;;;;10904465;32;20382;-71
2023/05/07 05:50:45;;;;;;;8.73;6.10;;;19.30;79.10;;;;;;10900259;32;20085;-70
2023/05/07 05:56:48;;;;;;;9.82;5.62;;;19.40;79.10;;;;;;10903799;32;20042;-71
2023/05/07 06:02:57;;;;;;;7.00;5.30;;;19.50;79.00;;;;;;10900466;32;20019;-71
2023/05/07 06:08:59;;;;;;;13.35;5.80;;;19.60;78.70;;;;;;10908604;32;20024;-70
2023/05/07 06:15:11;;;;;;;6.72;4.97;;;19.80;78.70;;;;;;10909682;32;20050;-70
2023/05/07 06:21:15;;;;;;;8.90;5.53;;;20.00;78.50;;;;;;10910713;32;20287;-70
2023/05/07 06:27:39;;;;;;;8.00;6.80;;;20.20;78.20;;;;;;10908851;32;20362;-70
2023/05/07 06:33:43;;;;;;;9.30;6.57;;;20.20;78.10;;;;;;10906070;32;20027;-70
2023/05/07 06:39:45;;;;;;;11.12;7.72;;;20.30;78.10;;;;;;10910143;32;20063;-71
2023/05/07 06:45:48;;;;;;;12.85;11.00;;;20.40;78.10;;;;;;10908265;32;20023;-71
2023/05/07 06:51:50;;;;;;;14.85;12.55;;;20.50;77.80;;;;;;10910031;32;20027;-70
2023/05/07 06:57:52;;;;;;;12.32;9.95;;;20.60;77.70;;;;;;10893101;32;20031;-71
2023/05/07 07:03:55;;;;;;;11.48;7.55;;;20.60;77.70;;;;;;10906335;32;20020;-72
2023/05/07 07:09:58;;;;;;;10.63;8.60;;;20.80;77.40;;;;;;10906977;32;20053;-71
2023/05/07 07:16:01;;;;;;;11.43;8.05;;;20.90;77.00;;;;;;10904943;32;20020;-71
2023/05/07 07:22:03;;;;;;;8.73;6.30;;;21.00;76.90;;;;;;10905726;32;20023;-71
2023/05/07 07:28:06;;;;;;;9.25;7.10;;;21.20;76.70;;;;;;10908230;32;20385;-71
2023/05/07 07:34:08;;;;;;;8.90;6.85;;;21.30;76.10;;;;;;10904844;32;20404;-72
2023/05/07 07:40:11;;;;;;;9.02;6.70;;;21.30;75.70;;;;;;10908466;32;20019;-71
2023/05/07 07:46:15;;;;;;;13.52;11.52;;;21.40;75.40;;;;;;10907873;32;20313;-71
2023/05/07 07:52:19;;;;;;;10.30;7.53;;;21.50;74.90;;;;;;10910349;27;20032;-71
2023/05/07 07:58:21;;;;;;;8.50;6.03;;;21.70;74.50;;;;;;10892880;32;20031;-72
2023/05/07 08:04:24;;;;;;;8.07;6.37;;;21.80;74.00;;;;;;10906599;32;20054;-71
2023/05/07 08:10:27;;;;;;;9.15;4.95;;;21.80;73.50;;;;;;10903314;32;20023;-72
2023/05/07 08:16:32;;;;;;;14.23;10.65;;;22.00;72.80;;;;;;10902432;32;20057;-72
2023/05/07 08:22:37;;;;;;;8.05;6.22;;;22.20;72.40;;;;;;10906427;32;20058;-72
2023/05/07 08:28:40;;;;;;;8.27;5.40;;;22.20;72.10;;;;;;10906031;32;20480;-71
2023/05/07 08:34:44;;;;;;;9.38;7.50;;;22.30;71.70;;;;;;10905920;32;20389;-71
2023/05/07 08:40:47;;;;;;;9.35;7.20;;;22.50;71.40;;;;;;10904783;32;20337;-71
2023/05/07 08:46:53;;;;;;;10.52;6.03;;;22.50;71.60;;;;;;10905542;32;20023;-71
2023/05/07 08:53:04;;;;;;;7.45;5.03;;;22.50;71.00;;;;;;10903766;32;20027;-72
2023/05/07 08:59:06;;;;;;;7.47;4.97;;;22.50;71.00;;;;;;10903113;32;20027;-71
2023/05/07 09:05:09;;;;;;;5.55;3.67;;;22.60;70.60;;;;;;10905056;32;20027;-71
2023/05/07 09:11:13;;;;;;;4.78;3.40;;;22.70;70.40;;;;;;10898439;32;20031;-72
2023/05/07 09:17:18;;;;;;;7.40;3.92;;;22.80;69.80;;;;;;10902637;32;20061;-72
2023/05/07 09:23:21;;;;;;;4.82;3.55;;;22.80;69.20;;;;;;10904044;32;20019;-72
2023/05/07 09:29:25;;;;;;;8.70;3.37;;;22.70;69.20;;;;;;10905623;32;20050;-72
2023/05/07 09:35:28;;;;;;;4.55;2.92;;;22.80;68.90;;;;;;10901187;32;20031;-73
2023/05/07 09:41:34;;;;;;;6.95;4.50;;;22.80;68.70;;;;;;10906518;32;20035;-71
2023/05/07 09:47:44;;;;;;;6.80;4.25;;;22.90;67.90;;;;;;10894518;32;20061;-71
2023/05/07 09:53:49;;;;;;;5.57;4.03;;;23.10;67.50;;;;;;10906838;32;20035;-72
2023/05/07 10:00:05;;;;;;;6.75;4.28;;;23.30;67.20;;;;;;10892747;32;20054;-72
2023/05/07 10:06:13;;;;;;;4.27;2.57;;;23.40;66.40;;;;;;10910273;32;20054;-72
2023/05/07 10:12:17;;;;;;;15.30;9.30;;;23.60;66.50;;;;;;10896451;32;20433;-72
2023/05/07 10:18:29;;;;;;;8.98;5.70;;;23.80;66.10;;;;;;10912034;32;20019;-71
2023/05/07 10:24:36;;;;;;;11.90;9.57;;;23.90;67.40;;;;;;10910434;32;20019;-72
2023/05/07 10:31:00;;;;;;;8.35;6.25;;;23.90;67.50;;;;;;10907846;32;20023;-73
2023/05/07 10:37:24;;;;;;;9.00;5.70;;;24.00;67.00;;;;;;10908102;32;20019;-73
2023/05/07 10:43:44;;;;;;;11.05;8.05;;;24.20;66.00;;;;;;10906337;32;20345;-73
2023/05/07 10:49:47;;;;;;;9.70;7.65;;;24.30;67.50;;;;;;10905068;32;20058;-73
2023/05/07 10:56:11;;;;;;;7.40;5.35;;;24.40;66.70;;;;;;10878911;32;20035;-74
2023/05/07 11:02:19;;;;;;;9.88;8.73;;;24.60;65.30;;;;;;10904948;32;20377;-74
2023/05/07 11:08:21;;;;;;;7.72;5.65;;;24.80;64.70;;;;;;10907592;32;20035;-71
2023/05/07 11:14:42;;;;;;;8.38;6.62;;;25.10;64.10;;;;;;10908659;32;20057;-74
2023/05/07 11:20:54;;;;;;;8.40;6.95;;;25.20;63.30;;;;;;10905388;32;20051;-73
2023/05/07 11:26:59;;;;;;;7.80;5.10;;;25.20;63.00;;;;;;10892769;32;20023;-73
2023/05/07 11:33:04;;;;;;;7.22;4.82;;;25.40;63.40;;;;;;10908671;32;20027;-74
2023/05/07 11:39:22;;;;;;;10.90;7.15;;;25.70;62.40;;;;;;10893936;32;20051;-73
2023/05/07 11:45:25;;;;;;;7.90;6.45;;;25.90;61.50;;;;;;10892947;32;20398;-73
2023/05/07 11:51:28;;;;;;;8.90;7.07;;;25.90;61.20;;;;;;10907254;32;20046;-73
2023/05/07 11:57:34;;;;;;;7.12;4.78;;;26.00;60.00;;;;;;10908071;32;20011;-73
2023/05/07 12:03:41;;;;;;;6.10;4.65;;;25.80;60.40;;;;;;10906512;32;20392;-74
2023/05/07 12:09:47;;;;;;;6.82;3.58;;;25.60;60.40;;;;;;10904327;32;20045;-74
2023/05/07 12:15:54;;;;;;;6.60;4.57;;;25.30;60.50;;;;;;10906447;32;20027;-73
2023/05/07 12:21:57;;;;;;;6.68;4.72;;;25.40;60.70;;;;;;10902469;32;20051;-72
2023/05/07 12:28:01;;;;;;;6.37;4.65;;;25.30;60.60;;;;;;10904227;32;20016;-73
2023/05/07 12:34:04;;;;;;;7.87;5.18;;;25.40;60.20;;;;;;10888430;32;20303;-73
2023/05/07 12:40:08;;;;;;;7.72;4.57;;;25.50;60.20;;;;;;10906206;32;20043;-74
2023/05/07 12:46:13;;;;;;;6.55;4.47;;;25.60;59.70;;;;;;10905030;32;20042;-73
2023/05/07 12:52:17;;;;;;;7.72;4.22;;;25.70;59.20;;;;;;10904002;32;20023;-73
2023/05/07 12:58:27;;;;;;;5.72;3.97;;;25.90;58.60;;;;;;10905442;32;20010;-72
2023/05/07 13:04:29;;;;;;;7.82;4.75;;;26.20;58.30;;;;;;10716401;32;20017;-73
2023/05/07 13:10:47;;;;;;;8.18;4.37;;;26.30;57.60;;;;;;10702138;32;20043;-74
2023/05/07 13:16:51;;;;;;;6.03;3.70;;;26.30;57.30;;;;;;10715330;33;20292;-73
2023/05/07 13:22:53;;;;;;;8.18;4.62;;;26.30;57.00;;;;;;10713904;33;20025;-72
2023/05/07 13:29:39;;;;;;;5.53;4.60;;;26.40;56.70;;;;;;10715054;33;20020;-73
2023/05/07 13:35:41;;;;;;;4.30;3.17;;;26.30;58.00;;;;;;10900871;32;20050;-73
2023/05/07 13:41:43;;;;;;;7.15;4.15;;;26.30;57.40;;;;;;10897086;32;20039;-72
2023/05/07 13:47:46;;;;;;;5.12;3.20;;;26.40;57.20;;;;;;10900297;32;20019;-73
2023/05/07 13:53:49;;;;;;;5.95;3.05;;;26.60;56.90;;;;;;10851798;32;20043;-73
2023/05/07 13:59:51;;;;;;;6.07;3.72;;;26.60;56.30;;;;;;10852544;32;20016;-73
2023/05/07 14:05:53;;;;;;;8.55;3.15;;;26.60;56.00;;;;;;10847843;32;20452;-72
2023/05/07 14:12:05;;;;;;;4.75;3.33;;;26.70;55.80;;;;;;10850380;32;20350;-73
2023/05/07 14:18:07;;;;;;;7.32;3.90;;;26.60;58.00;;;;;;10865942;32;20051;-73
2023/05/07 14:24:32;;;;;;;4.50;3.35;;;26.30;56.40;;;;;;10862955;32;20304;-74
2023/05/07 14:30:34;;;;;;;4.47;3.08;;;26.30;56.00;;;;;;10871492;32;20269;-73
2023/05/07 14:36:37;;;;;;;3.40;1.75;;;26.30;55.20;;;;;;10858622;32;20027;-72
2023/05/07 14:42:40;;;;;;;4.12;2.85;;;26.40;55.70;;;;;;10870429;32;20046;-73
2023/05/07 14:48:43;;;;;;;5.35;2.97;;;26.50;55.80;;;;;;10871151;32;20036;-73
2023/05/07 14:54:45;;;;;;;5.72;2.35;;;26.50;57.00;;;;;;10907185;32;20027;-73
2023/05/07 15:01:03;;;;;;;4.80;2.78;;;26.50;56.00;;;;;;10894588;32;20063;-73
2023/05/07 15:07:06;;;;;;;4.10;2.55;;;26.50;54.70;;;;;;10882795;32;20026;-72
2023/05/07 15:13:09;;;;;;;3.78;2.42;;;26.40;56.10;;;;;;10902687;32;20031;-73
2023/05/07 15:19:16;;;;;;;2.97;1.55;;;26.40;55.80;;;;;;10901537;32;20034;-73
2023/05/07 15:25:20;;;;;;;2.25;1.60;;;26.60;54.60;;;;;;10891331;32;20447;-74
2023/05/07 15:31:23;;;;;;;2.75;1.80;;;26.70;54.00;;;;;;10899031;32;20034;-72
2023/05/07 15:37:25;;;;;;;11.68;3.60;;;26.60;53.90;;;;;;10900026;32;20040;-72
2023/05/07 15:43:27;;;;;;;5.93;3.47;;;26.50;54.50;;;;;;10901280;32;20051;-73
2023/05/07 15:49:33;;;;;;;2.73;1.97;;;26.50;55.50;;;;;;10685890;27;6956886;-74
2023/05/07 15:55:37;;;;;;;6.85;3.50;;;26.50;54.60;;;;;;10872820;32;20148;-73
2023/05/07 16:01:43;;;;;;;3.37;2.20;;;26.60;54.50;;;;;;10862037;32;20024;-73
2023/05/07 16:07:47;;;;;;;2.75;1.35;;;26.60;54.30;;;;;;10861717;32;20078;-72
2023/05/07 16:13:52;;;;;;;7.95;2.30;;;26.60;53.90;;;;;;10859131;32;20042;-73
2023/05/07 16:20:23;;;;;;;2.20;1.08;;;26.60;53.90;;;;;;10861685;32;20019;-72
2023/05/07 16:26:27;;;;;;;2.40;1.50;;;26.60;54.00;;;;;;10859584;32;20032;-72
2023/05/07 16:32:32;;;;;;;1.90;1.52;;;26.40;53.50;;;;;;10859785;32;20023;-72
2023/05/07 16:39:03;;;;;;;2.10;1.60;;;26.30;53.60;;;;;;10854516;32;20441;-72
2023/05/07 16:45:23;;;;;;;3.45;1.80;;;26.10;53.50;;;;;;10859885;32;20342;-72
2023/05/07 16:51:29;;;;;;;4.05;2.30;;;26.00;53.60;;;;;;10859910;32;20039;-71
2023/05/07 16:57:43;;;;;;;2.80;1.62;;;25.80;53.40;;;;;;10861897;32;20431;-75
2023/05/07 17:03:50;;;;;;;6.15;2.22;;;25.70;53.90;;;;;;10889727;32;20066;-74
2023/05/07 17:10:19;;;;;;;4.75;2.08;;;25.60;54.50;;;;;;10900763;32;20031;-75
2023/05/07 17:16:35;;;;;;;2.83;1.83;;;25.40;54.80;;;;;;10904949;32;20061;-75
2023/05/07 17:22:46;;;;;;;2.15;1.67;;;25.30;55.50;;;;;;10895268;32;20051;-75
2023/05/07 17:29:19;;;;;;;2.35;1.55;;;25.20;56.00;;;;;;10905057;32;20055;-75
2023/05/07 17:35:55;;;;;;;2.67;1.65;;;25.00;56.20;;;;;;10901817;32;20026;-75
2023/05/07 17:41:58;;;;;;;3.30;1.77;;;24.80;56.70;;;;;;10894897;32;20071;-75
2023/05/07 17:48:11;;;;;;;3.20;1.80;;;24.70;57.20;;;;;;10888024;32;20337;-75
2023/05/07 17:54:13;;;;;;;1.95;1.30;;;24.60;57.90;;;;;;10903310;32;20066;-75
2023/05/07 18:00:15;;;;;;;2.78;1.55;;;24.50;58.40;;;;;;10885269;32;20031;-75
2023/05/07 18:06:22;;;;;;;2.20;1.55;;;24.40;58.70;;;;;;10889863;32;20093;-75
2023/05/07 18:12:24;;;;;;;2.45;1.60;;;24.40;59.80;;;;;;10902592;32;20058;-75
2023/05/07 18:18:29;;;;;;;3.03;2.10;;;24.30;60.60;;;;;;10890799;32;20027;-75
2023/05/07 18:24:32;;;;;;;4.12;1.70;;;24.20;61.50;;;;;;10907709;32;20403;-75
2023/05/07 18:30:38;;;;;;;2.95;2.12;;;24.20;61.90;;;;;;10905270;32;20046;-75
2023/05/07 18:36:42;;;;;;;4.20;2.35;;;24.00;62.80;;;;;;10906100;32;20027;-75
2023/05/07 18:42:44;;;;;;;5.68;3.20;;;23.90;63.60;;;;;;10907289;32;20031;-75
2023/05/07 18:48:51;;;;;;;4.68;3.40;;;23.80;64.00;;;;;;10944509;32;20019;-75
2023/05/07 18:54:54;;;;;;;4.93;3.35;;;23.70;65.00;;;;;;10942642;32;20408;-75
2023/05/07 19:00:59;;;;;;;5.78;3.47;;;23.60;64.90;;;;;;10942890;32;20084;-75
2023/05/07 19:07:03;;;;;;;6.47;3.80;;;23.70;65.00;;;;;;10947211;32;20023;-75
2023/05/07 19:13:07;;;;;;;4.03;3.03;;;23.70;65.70;;;;;;10946934;32;20411;-76
2023/05/07 19:19:09;;;;;;;3.05;2.17;;;23.60;66.90;;;;;;10946820;32;20035;-75
2023/05/07 19:26:00;;;;;;;6.87;3.55;;;23.50;68.10;;;;;;10942796;32;20329;-76
2023/05/07 19:32:05;;;;;;;4.45;3.47;;;23.50;68.80;;;;;;10929963;32;20375;-75
2023/05/07 19:38:09;;;;;;;4.10;2.87;;;23.30;70.50;;;;;;10946531;32;20545;-75
2023/05/07 19:44:14;;;;;;;4.55;2.35;;;23.20;70.70;;;;;;10945638;32;20311;-75
2023/05/07 19:50:17;;;;;;;5.22;3.53;;;23.30;70.50;;;;;;10943511;32;20357;-75
2023/05/07 19:56:21;;;;;;;4.40;2.75;;;23.10;71.10;;;;;;10944250;32;20437;-75
2023/05/07 20:02:25;;;;;;;4.50;2.40;;;23.10;71.40;;;;;;10942476;32;20330;-75
2023/05/07 20:08:29;;;;;;;4.62;2.65;;;23.00;71.40;;;;;;10943472;32;20524;-75
2023/05/07 20:14:33;;;;;;;6.75;3.28;;;23.10;71.40;;;;;;10945002;32;20065;-74
2023/05/07 20:20:36;;;;;;;5.28;3.15;;;23.10;71.40;;;;;;10945456;32;20190;-75
2023/05/07 20:26:37;;;;;;;3.30;2.47;;;23.00;71.60;;;;;;10942320;32;20019;-75
2023/05/07 20:32:40;;;;;;;4.97;3.12;;;22.90;71.70;;;;;;10941187;32;20023;-75
2023/05/07 20:38:45;;;;;;;6.00;3.25;;;22.90;71.90;;;;;;10944142;32;20027;-75
2023/05/07 20:44:56;;;;;;;6.43;3.72;;;22.90;71.90;;;;;;10927266;32;20369;-75
2023/05/07 20:51:00;;;;;;;5.55;3.12;;;22.90;72.40;;;;;;10925900;32;20079;-75
2023/05/07 20:57:02;;;;;;;5.10;3.35;;;22.80;72.90;;;;;;10943543;32;20443;-75
2023/05/07 21:03:04;;;;;;;5.87;3.03;;;22.80;72.80;;;;;;10943208;32;20419;-75
2023/05/07 21:09:11;;;;;;;4.97;3.00;;;22.70;72.80;;;;;;10942066;32;20065;-75
2023/05/07 21:15:13;;;;;;;4.28;2.92;;;22.70;72.90;;;;;;10937949;32;20027;-75
2023/05/07 21:21:38;;;;;;;4.95;2.92;;;22.60;73.90;;;;;;10939440;32;20452;-75
2023/05/07 21:27:40;;;;;;;3.58;2.53;;;22.60;74.60;;;;;;10941173;32;20023;-75
2023/05/07 21:33:43;;;;;;;8.20;3.62;;;22.50;75.30;;;;;;10941976;32;20057;-75
2023/05/07 21:39:50;;;;;;;5.22;3.50;;;22.50;75.20;;;;;;10922701;32;20035;-76
2023/05/07 21:45:58;;;;;;;6.03;3.83;;;22.40;74.80;;;;;;10940113;32;20026;-75
2023/05/07 21:52:24;;;;;;;6.05;2.72;;;22.30;74.80;;;;;;10941336;32;20057;-75
2023/05/07 21:58:26;;;;;;;5.35;3.55;;;22.30;74.80;;;;;;10929508;32;20419;-71
2023/05/07 22:04:30;;;;;;;5.10;3.72;;;22.40;75.00;;;;;;10941037;32;20081;-72
2023/05/07 22:10:32;;;;;;;5.82;4.30;;;22.30;74.90;;;;;;10941378;32;20023;-71
2023/05/07 22:16:34;;;;;;;7.53;4.18;;;22.30;74.70;;;;;;10924226;32;20019;-71
2023/05/07 22:22:50;;;;;;;5.32;3.67;;;22.30;75.00;;;;;;10938253;32;20049;-71
2023/05/07 22:28:52;;;;;;;6.40;4.87;;;22.30;75.00;;;;;;10926729;32;20035;-71
2023/05/07 22:34:54;;;;;;;7.12;4.57;;;22.20;75.40;;;;;;10937773;32;20034;-71
2023/05/07 22:40:57;;;;;;;8.00;4.78;;;22.10;75.70;;;;;;10922581;32;20038;-71
2023/05/07 22:46:59;;;;;;;7.12;5.05;;;22.00;76.00;;;;;;10941359;32;20018;-71
2023/05/07 22:53:01;;;;;;;6.50;4.32;;;22.00;76.00;;;;;;10947019;32;20440;-71
2023/05/07 22:59:03;;;;;;;7.93;5.75;;;22.00;75.80;;;;;;10947991;32;20019;-71
2023/05/07 23:05:05;;;;;;;6.70;5.03;;;22.00;75.80;;;;;;10947748;32;20023;-71
2023/05/07 23:11:08;;;;;;;11.52;7.20;;;21.90;75.90;;;;;;10945157;32;20041;-71
2023/05/07 23:17:10;;;;;;;7.15;5.37;;;21.80;76.10;;;;;;10946213;32;20011;-72
2023/05/07 23:23:12;;;;;;;11.10;6.78;;;21.80;76.20;;;;;;10944568;32;20023;-72
2023/05/07 23:29:13;;;;;;;10.80;5.93;;;21.80;76.10;;;;;;10853066;32;20284;-71
2023/05/07 23:35:16;;;;;;;12.02;6.40;;;21.80;76.00;;;;;;10854684;32;20032;-72
2023/05/07 23:41:18;;;;;;;7.22;5.53;;;21.80;76.10;;;;;;10867083;32;20464;-71
2023/05/07 23:47:20;;;;;;;8.93;6.55;;;21.90;76.00;;;;;;10867358;32;20024;-71
2023/05/07 23:53:22;;;;;;;9.80;7.10;;;21.90;76.10;;;;;;10842563;27;20058;-71
2023/05/07 23:59:24;;;;;;;11.27;7.62;;;21.90;76.00;;;;;;10880486;32;20023;-71
